sensor_id;sensor_type;location;lat;lon;timestamp;temperature;humidity
70074;DHT22;57445;51.058;3.698;2023-06-04T00:00:25;16.60;75.00
70074;DHT22;57445;51.058;3.698;2023-06-04T00:02:57;16.50;75.20
70074;DHT22;57445;51.058;3.698;2023-06-04T00:05:25;16.60;75.10
70074;DHT22;57445;51.058;3.698;2023-06-04T00:07:53;16.60;74.90
70074;DHT22;57445;51.058;3.698;2023-06-04T00:10:21;16.50;75.10
70074;DHT22;57445;51.058;3.698;2023-06-04T00:12:49;16.50;75.30
70074;DHT22;57445;51.058;3.698;2023-06-04T00:15:21;16.40;75.60
70074;DHT22;57445;51.058;3.698;2023-06-04T00:17:49;16.40;75.50
70074;DHT22;57445;51.058;3.698;2023-06-04T00:20:21;16.40;75.50
70074;DHT22;57445;51.058;3.698;2023-06-04T00:22:48;16.30;75.40
70074;DHT22;57445;51.058;3.698;2023-06-04T00:25:16;16.30;75.60
70074;DHT22;57445;51.058;3.698;2023-06-04T00:27:48;16.30;75.10
70074;DHT22;57445;51.058;3.698;2023-06-04T00:30:21;16.30;75.50
70074;DHT22;57445;51.058;3.698;2023-06-04T00:32:53;16.30;75.40
70074;DHT22;57445;51.058;3.698;2023-06-04T00:35:25;16.30;75.30
70074;DHT22;57445;51.058;3.698;2023-06-04T00:37:52;16.20;75.30
70074;DHT22;57445;51.058;3.698;2023-06-04T00:40:24;16.20;75.30
70074;DHT22;57445;51.058;3.698;2023-06-04T00:42:56;16.20;75.50
70074;DHT22;57445;51.058;3.698;2023-06-04T00:45:25;16.20;75.30
70074;DHT22;57445;51.058;3.698;2023-06-04T00:47:55;16.20;75.20
70074;DHT22;57445;51.058;3.698;2023-06-04T00:50:28;16.10;75.40
70074;DHT22;57445;51.058;3.698;2023-06-04T00:53:01;16.10;75.50
70074;DHT22;57445;51.058;3.698;2023-06-04T00:55:36;16.10;75.30
70074;DHT22;57445;51.058;3.698;2023-06-04T00:58:08;16.00;75.60
70074;DHT22;57445;51.058;3.698;2023-06-04T01:00:41;15.90;75.80
70074;DHT22;57445;51.058;3.698;2023-06-04T01:03:16;15.90;76.00
70074;DHT22;57445;51.058;3.698;2023-06-04T01:05:51;15.80;76.30
70074;DHT22;57445;51.058;3.698;2023-06-04T01:08:23;15.90;75.80
70074;DHT22;57445;51.058;3.698;2023-06-04T01:10:51;15.80;76.00
70074;DHT22;57445;51.058;3.698;2023-06-04T01:13:19;15.80;76.20
70074;DHT22;57445;51.058;3.698;2023-06-04T01:15:52;15.80;75.90
70074;DHT22;57445;51.058;3.698;2023-06-04T01:18:21;15.80;76.10
70074;DHT22;57445;51.058;3.698;2023-06-04T01:21:00;15.70;76.50
70074;DHT22;57445;51.058;3.698;2023-06-04T01:23:32;15.60;76.80
70074;DHT22;57445;51.058;3.698;2023-06-04T01:26:05;15.60;76.80
70074;DHT22;57445;51.058;3.698;2023-06-04T01:28:37;15.70;76.50
70074;DHT22;57445;51.058;3.698;2023-06-04T01:31:06;15.80;76.30
70074;DHT22;57445;51.058;3.698;2023-06-04T01:33:34;15.70;77.00
70074;DHT22;57445;51.058;3.698;2023-06-04T01:36:02;15.70;76.50
70074;DHT22;57445;51.058;3.698;2023-06-04T01:38:30;15.50;76.70
70074;DHT22;57445;51.058;3.698;2023-06-04T01:40:57;15.50;76.80
70074;DHT22;57445;51.058;3.698;2023-06-04T01:43:27;15.60;76.70
70074;DHT22;57445;51.058;3.698;2023-06-04T01:45:59;15.60;76.50
70074;DHT22;57445;51.058;3.698;2023-06-04T01:48:33;15.50;76.60
70074;DHT22;57445;51.058;3.698;2023-06-04T01:51:01;15.50;76.60
70074;DHT22;57445;51.058;3.698;2023-06-04T01:53:33;15.50;76.60
70074;DHT22;57445;51.058;3.698;2023-06-04T01:56:05;15.30;77.00
70074;DHT22;57445;51.058;3.698;2023-06-04T01:58:33;15.40;76.90
70074;DHT22;57445;51.058;3.698;2023-06-04T02:01:05;15.50;76.50
70074;DHT22;57445;51.058;3.698;2023-06-04T02:03:39;15.40;77.70
70074;DHT22;57445;51.058;3.698;2023-06-04T02:06:11;15.30;79.00
70074;DHT22;57445;51.058;3.698;2023-06-04T02:08:43;15.10;79.40
70074;DHT22;57445;51.058;3.698;2023-06-04T02:11:11;15.00;80.70
70074;DHT22;57445;51.058;3.698;2023-06-04T02:13:43;15.00;80.20
70074;DHT22;57445;51.058;3.698;2023-06-04T02:16:15;15.00;80.10
70074;DHT22;57445;51.058;3.698;2023-06-04T02:18:48;15.10;78.30
70074;DHT22;57445;51.058;3.698;2023-06-04T02:21:20;15.10;77.90
70074;DHT22;57445;51.058;3.698;2023-06-04T02:23:52;15.20;77.40
70074;DHT22;57445;51.058;3.698;2023-06-04T02:26:20;15.10;77.60
70074;DHT22;57445;51.058;3.698;2023-06-04T02:28:49;15.10;77.70
70074;DHT22;57445;51.058;3.698;2023-06-04T02:31:18;15.10;77.80
70074;DHT22;57445;51.058;3.698;2023-06-04T02:33:45;15.00;78.00
70074;DHT22;57445;51.058;3.698;2023-06-04T02:36:14;15.00;78.20
70074;DHT22;57445;51.058;3.698;2023-06-04T02:38:48;15.00;78.50
70074;DHT22;57445;51.058;3.698;2023-06-04T02:41:15;14.90;78.70
70074;DHT22;57445;51.058;3.698;2023-06-04T02:43:44;15.00;78.60
70074;DHT22;57445;51.058;3.698;2023-06-04T02:46:16;15.00;78.50
70074;DHT22;57445;51.058;3.698;2023-06-04T02:48:48;15.00;78.60
70074;DHT22;57445;51.058;3.698;2023-06-04T02:51:21;14.90;78.30
70074;DHT22;57445;51.058;3.698;2023-06-04T02:53:49;14.90;78.40
70074;DHT22;57445;51.058;3.698;2023-06-04T02:56:16;14.80;78.60
70074;DHT22;57445;51.058;3.698;2023-06-04T02:58:48;14.80;78.70
70074;DHT22;57445;51.058;3.698;2023-06-04T03:01:19;14.80;78.70
70074;DHT22;57445;51.058;3.698;2023-06-04T03:03:52;14.70;79.10
70074;DHT22;57445;51.058;3.698;2023-06-04T03:06:20;14.70;79.20
70074;DHT22;57445;51.058;3.698;2023-06-04T03:08:53;14.70;79.30
70074;DHT22;57445;51.058;3.698;2023-06-04T03:11:27;14.80;79.10
70074;DHT22;57445;51.058;3.698;2023-06-04T03:13:58;14.80;78.70
70074;DHT22;57445;51.058;3.698;2023-06-04T03:16:30;14.80;79.00
70074;DHT22;57445;51.058;3.698;2023-06-04T03:18:59;14.80;79.10
70074;DHT22;57445;51.058;3.698;2023-06-04T03:21:26;14.70;79.20
70074;DHT22;57445;51.058;3.698;2023-06-04T03:24:00;14.80;79.10
70074;DHT22;57445;51.058;3.698;2023-06-04T03:26:28;14.80;79.30
70074;DHT22;57445;51.058;3.698;2023-06-04T03:29:00;14.60;79.90
70074;DHT22;57445;51.058;3.698;2023-06-04T03:31:28;14.60;80.20
70074;DHT22;57445;51.058;3.698;2023-06-04T03:33:58;14.50;80.60
70074;DHT22;57445;51.058;3.698;2023-06-04T03:36:30;14.50;80.60
70074;DHT22;57445;51.058;3.698;2023-06-04T03:38:58;14.40;80.80
70074;DHT22;57445;51.058;3.698;2023-06-04T03:41:32;14.40;81.00
70074;DHT22;57445;51.058;3.698;2023-06-04T03:44:04;14.30;81.30
70074;DHT22;57445;51.058;3.698;2023-06-04T03:46:36;14.30;81.50
70074;DHT22;57445;51.058;3.698;2023-06-04T03:49:03;14.30;81.60
70074;DHT22;57445;51.058;3.698;2023-06-04T03:51:35;14.30;81.80
70074;DHT22;57445;51.058;3.698;2023-06-04T03:54:02;14.30;81.70
70074;DHT22;57445;51.058;3.698;2023-06-04T03:56:31;14.20;81.70
70074;DHT22;57445;51.058;3.698;2023-06-04T03:59:03;14.20;82.00
70074;DHT22;57445;51.058;3.698;2023-06-04T04:01:31;14.40;81.90
70074;DHT22;57445;51.058;3.698;2023-06-04T04:04:04;14.40;81.40
70074;DHT22;57445;51.058;3.698;2023-06-04T04:06:36;14.60;80.70
70074;DHT22;57445;51.058;3.698;2023-06-04T04:09:04;14.60;80.70
70074;DHT22;57445;51.058;3.698;2023-06-04T04:11:33;14.60;80.40
70074;DHT22;57445;51.058;3.698;2023-06-04T04:14:01;14.50;80.90
70074;DHT22;57445;51.058;3.698;2023-06-04T04:16:33;14.30;81.40
70074;DHT22;57445;51.058;3.698;2023-06-04T04:19:00;14.40;81.30
70074;DHT22;57445;51.058;3.698;2023-06-04T04:21:32;14.50;81.00
70074;DHT22;57445;51.058;3.698;2023-06-04T04:24:04;14.50;80.90
70074;DHT22;57445;51.058;3.698;2023-06-04T04:26:34;14.40;81.30
70074;DHT22;57445;51.058;3.698;2023-06-04T04:29:06;14.30;81.50
70074;DHT22;57445;51.058;3.698;2023-06-04T04:31:39;14.30;81.60
70074;DHT22;57445;51.058;3.698;2023-06-04T04:34:06;14.50;81.10
70074;DHT22;57445;51.058;3.698;2023-06-04T04:36:34;14.40;81.30
70074;DHT22;57445;51.058;3.698;2023-06-04T04:39:02;14.40;81.40
70074;DHT22;57445;51.058;3.698;2023-06-04T04:41:36;14.40;80.90
70074;DHT22;57445;51.058;3.698;2023-06-04T04:44:08;14.30;81.30
70074;DHT22;57445;51.058;3.698;2023-06-04T04:46:35;14.60;81.10
70074;DHT22;57445;51.058;3.698;2023-06-04T04:49:07;14.80;80.30
70074;DHT22;57445;51.058;3.698;2023-06-04T04:51:35;14.70;80.20
70074;DHT22;57445;51.058;3.698;2023-06-04T04:54:02;14.80;80.30
70074;DHT22;57445;51.058;3.698;2023-06-04T04:56:33;14.90;79.70
70074;DHT22;57445;51.058;3.698;2023-06-04T04:59:02;15.20;78.60
70074;DHT22;57445;51.058;3.698;2023-06-04T05:01:30;15.20;78.40
70074;DHT22;57445;51.058;3.698;2023-06-04T05:04:02;15.10;78.30
70074;DHT22;57445;51.058;3.698;2023-06-04T05:06:29;14.90;79.20
70074;DHT22;57445;51.058;3.698;2023-06-04T05:08:57;14.80;79.70
70074;DHT22;57445;51.058;3.698;2023-06-04T05:11:29;14.90;79.70
70074;DHT22;57445;51.058;3.698;2023-06-04T05:13:56;15.00;79.40
70074;DHT22;57445;51.058;3.698;2023-06-04T05:16:29;15.10;79.00
70074;DHT22;57445;51.058;3.698;2023-06-04T05:18:57;15.40;78.20
70074;DHT22;57445;51.058;3.698;2023-06-04T05:21:24;15.40;77.60
70074;DHT22;57445;51.058;3.698;2023-06-04T05:23:52;15.50;77.70
70074;DHT22;57445;51.058;3.698;2023-06-04T05:26:20;15.70;77.00
70074;DHT22;57445;51.058;3.698;2023-06-04T05:28:49;16.30;76.00
70074;DHT22;57445;51.058;3.698;2023-06-04T05:31:17;17.10;73.70
70074;DHT22;57445;51.058;3.698;2023-06-04T05:33:46;17.90;72.50
70074;DHT22;57445;51.058;3.698;2023-06-04T05:36:14;19.40;69.10
70074;DHT22;57445;51.058;3.698;2023-06-04T05:38:41;20.10;65.50
70074;DHT22;57445;51.058;3.698;2023-06-04T05:41:13;20.50;65.30
70074;DHT22;57445;51.058;3.698;2023-06-04T05:43:45;20.60;64.20
70074;DHT22;57445;51.058;3.698;2023-06-04T05:46:12;20.70;63.90
70074;DHT22;57445;51.058;3.698;2023-06-04T05:48:46;21.90;62.20
70074;DHT22;57445;51.058;3.698;2023-06-04T05:51:13;21.50;62.10
70074;DHT22;57445;51.058;3.698;2023-06-04T05:53:41;20.70;63.10
70074;DHT22;57445;51.058;3.698;2023-06-04T05:56:09;21.00;62.90
70074;DHT22;57445;51.058;3.698;2023-06-04T05:58:41;22.30;60.90
70074;DHT22;57445;51.058;3.698;2023-06-04T06:01:08;22.40;59.80
70074;DHT22;57445;51.058;3.698;2023-06-04T06:03:36;23.40;57.90
70074;DHT22;57445;51.058;3.698;2023-06-04T06:06:05;24.40;56.20
70074;DHT22;57445;51.058;3.698;2023-06-04T06:08:40;24.00;54.90
70074;DHT22;57445;51.058;3.698;2023-06-04T06:11:12;24.00;55.30
70074;DHT22;57445;51.058;3.698;2023-06-04T06:13:45;24.10;55.50
70074;DHT22;57445;51.058;3.698;2023-06-04T06:16:12;23.40;56.50
70074;DHT22;57445;51.058;3.698;2023-06-04T06:18:40;23.40;56.90
70074;DHT22;57445;51.058;3.698;2023-06-04T06:21:14;23.60;55.10
70074;DHT22;57445;51.058;3.698;2023-06-04T06:23:46;22.50;57.50
70074;DHT22;57445;51.058;3.698;2023-06-04T06:26:18;21.90;58.90
70074;DHT22;57445;51.058;3.698;2023-06-04T06:28:45;21.80;59.10
70074;DHT22;57445;51.058;3.698;2023-06-04T06:31:13;23.00;57.20
70074;DHT22;57445;51.058;3.698;2023-06-04T06:33:40;24.60;53.80
70074;DHT22;57445;51.058;3.698;2023-06-04T06:36:09;25.40;52.70
70074;DHT22;57445;51.058;3.698;2023-06-04T06:38:39;26.00;51.00
70074;DHT22;57445;51.058;3.698;2023-06-04T06:41:07;25.90;51.00
70074;DHT22;57445;51.058;3.698;2023-06-04T06:43:35;24.80;52.40
70074;DHT22;57445;51.058;3.698;2023-06-04T06:46:07;24.30;52.90
70074;DHT22;57445;51.058;3.698;2023-06-04T06:48:34;24.20;52.70
70074;DHT22;57445;51.058;3.698;2023-06-04T06:51:06;24.80;52.30
70074;DHT22;57445;51.058;3.698;2023-06-04T06:53:40;25.50;50.80
70074;DHT22;57445;51.058;3.698;2023-06-04T06:56:07;26.30;49.60
70074;DHT22;57445;51.058;3.698;2023-06-04T06:58:39;25.80;49.90
70074;DHT22;57445;51.058;3.698;2023-06-04T07:01:11;25.00;51.20
70074;DHT22;57445;51.058;3.698;2023-06-04T07:03:39;23.80;53.40
70074;DHT22;57445;51.058;3.698;2023-06-04T07:06:11;22.50;55.10
70074;DHT22;57445;51.058;3.698;2023-06-04T07:08:40;22.90;54.90
70074;DHT22;57445;51.058;3.698;2023-06-04T07:11:08;22.70;56.10
70074;DHT22;57445;51.058;3.698;2023-06-04T07:13:38;22.40;55.90
70074;DHT22;57445;51.058;3.698;2023-06-04T07:16:05;22.10;55.80
70074;DHT22;57445;51.058;3.698;2023-06-04T07:18:37;20.60;59.00
70074;DHT22;57445;51.058;3.698;2023-06-04T07:21:09;20.00;60.00
70074;DHT22;57445;51.058;3.698;2023-06-04T07:23:37;19.40;61.60
70074;DHT22;57445;51.058;3.698;2023-06-04T07:26:06;19.30;61.60
70074;DHT22;57445;51.058;3.698;2023-06-04T07:28:33;18.80;63.40
70074;DHT22;57445;51.058;3.698;2023-06-04T07:31:01;19.00;63.00
70074;DHT22;57445;51.058;3.698;2023-06-04T07:33:33;18.90;63.00
70074;DHT22;57445;51.058;3.698;2023-06-04T07:36:05;19.20;63.10
70074;DHT22;57445;51.058;3.698;2023-06-04T07:38:33;19.20;62.10
70074;DHT22;57445;51.058;3.698;2023-06-04T07:41:06;19.00;62.90
70074;DHT22;57445;51.058;3.698;2023-06-04T07:43:38;18.60;63.40
70074;DHT22;57445;51.058;3.698;2023-06-04T07:46:06;18.20;64.50
70074;DHT22;57445;51.058;3.698;2023-06-04T07:48:33;18.10;65.10
70074;DHT22;57445;51.058;3.698;2023-06-04T07:51:01;18.50;63.50
70074;DHT22;57445;51.058;3.698;2023-06-04T07:53:30;18.50;62.70
70074;DHT22;57445;51.058;3.698;2023-06-04T07:55:58;18.60;61.80
70074;DHT22;57445;51.058;3.698;2023-06-04T07:58:31;18.90;61.30
70074;DHT22;57445;51.058;3.698;2023-06-04T08:00:58;19.20;61.10
70074;DHT22;57445;51.058;3.698;2023-06-04T08:03:26;19.70;60.60
70074;DHT22;57445;51.058;3.698;2023-06-04T08:05:54;20.10;59.30
70074;DHT22;57445;51.058;3.698;2023-06-04T08:08:21;19.80;59.90
70074;DHT22;57445;51.058;3.698;2023-06-04T08:10:48;19.50;60.70
70074;DHT22;57445;51.058;3.698;2023-06-04T08:13:16;19.30;61.10
70074;DHT22;57445;51.058;3.698;2023-06-04T08:15:45;19.60;59.20
70074;DHT22;57445;51.058;3.698;2023-06-04T08:18:12;19.90;56.70
70074;DHT22;57445;51.058;3.698;2023-06-04T08:20:40;20.30;56.50
70074;DHT22;57445;51.058;3.698;2023-06-04T08:23:07;20.50;56.60
70074;DHT22;57445;51.058;3.698;2023-06-04T08:25:39;20.00;56.30
70074;DHT22;57445;51.058;3.698;2023-06-04T08:28:12;19.80;57.70
70074;DHT22;57445;51.058;3.698;2023-06-04T08:30:40;20.10;56.40
70074;DHT22;57445;51.058;3.698;2023-06-04T08:33:09;20.50;54.40
70074;DHT22;57445;51.058;3.698;2023-06-04T08:35:38;20.80;54.90
70074;DHT22;57445;51.058;3.698;2023-06-04T08:38:05;20.70;54.10
70074;DHT22;57445;51.058;3.698;2023-06-04T08:40:37;20.30;54.10
70074;DHT22;57445;51.058;3.698;2023-06-04T08:43:05;20.40;55.40
70074;DHT22;57445;51.058;3.698;2023-06-04T08:45:33;20.70;54.80
70074;DHT22;57445;51.058;3.698;2023-06-04T08:48:11;21.10;52.90
70074;DHT22;57445;51.058;3.698;2023-06-04T08:50:39;21.30;52.90
70074;DHT22;57445;51.058;3.698;2023-06-04T08:53:08;21.60;51.10
70074;DHT22;57445;51.058;3.698;2023-06-04T08:55:38;21.70;51.80
70074;DHT22;57445;51.058;3.698;2023-06-04T08:58:06;21.10;53.60
70074;DHT22;57445;51.058;3.698;2023-06-04T09:00:38;20.90;53.70
70074;DHT22;57445;51.058;3.698;2023-06-04T09:03:06;21.00;52.20
70074;DHT22;57445;51.058;3.698;2023-06-04T09:05:35;21.10;51.70
70074;DHT22;57445;51.058;3.698;2023-06-04T09:08:03;21.50;50.00
70074;DHT22;57445;51.058;3.698;2023-06-04T09:10:31;21.60;49.30
70074;DHT22;57445;51.058;3.698;2023-06-04T09:13:05;21.60;49.30
70074;DHT22;57445;51.058;3.698;2023-06-04T09:15:38;21.80;50.00
70074;DHT22;57445;51.058;3.698;2023-06-04T09:18:05;21.90;49.70
70074;DHT22;57445;51.058;3.698;2023-06-04T09:20:34;22.40;48.10
70074;DHT22;57445;51.058;3.698;2023-06-04T09:23:12;22.60;48.70
70074;DHT22;57445;51.058;3.698;2023-06-04T09:25:44;22.40;47.80
70074;DHT22;57445;51.058;3.698;2023-06-04T09:28:11;22.30;48.00
70074;DHT22;57445;51.058;3.698;2023-06-04T09:30:50;22.30;47.30
70074;DHT22;57445;51.058;3.698;2023-06-04T09:33:22;22.10;46.80
70074;DHT22;57445;51.058;3.698;2023-06-04T09:35:57;21.60;47.00
70074;DHT22;57445;51.058;3.698;2023-06-04T09:38:32;21.70;48.10
70074;DHT22;57445;51.058;3.698;2023-06-04T09:40:59;21.60;48.20
70074;DHT22;57445;51.058;3.698;2023-06-04T09:43:30;22.00;47.20
70074;DHT22;57445;51.058;3.698;2023-06-04T09:46:09;22.00;46.90
70074;DHT22;57445;51.058;3.698;2023-06-04T09:48:43;22.00;47.30
70074;DHT22;57445;51.058;3.698;2023-06-04T09:51:13;22.10;45.90
70074;DHT22;57445;51.058;3.698;2023-06-04T09:53:52;22.40;45.80
70074;DHT22;57445;51.058;3.698;2023-06-04T09:56:25;22.30;45.80
70074;DHT22;57445;51.058;3.698;2023-06-04T09:58:58;22.00;46.20
70074;DHT22;57445;51.058;3.698;2023-06-04T10:01:28;21.90;47.10
70074;DHT22;57445;51.058;3.698;2023-06-04T10:03:57;22.40;46.50
70074;DHT22;57445;51.058;3.698;2023-06-04T10:06:31;22.50;46.40
70074;DHT22;57445;51.058;3.698;2023-06-04T10:08:59;22.20;46.30
70074;DHT22;57445;51.058;3.698;2023-06-04T10:11:33;21.90;47.00
70074;DHT22;57445;51.058;3.698;2023-06-04T10:14:07;21.80;47.50
70074;DHT22;57445;51.058;3.698;2023-06-04T10:16:37;22.30;46.80
70074;DHT22;57445;51.058;3.698;2023-06-04T10:19:10;22.50;45.30
70074;DHT22;57445;51.058;3.698;2023-06-04T10:21:39;22.90;45.30
70074;DHT22;57445;51.058;3.698;2023-06-04T10:24:07;23.00;44.80
70074;DHT22;57445;51.058;3.698;2023-06-04T10:26:36;23.30;44.30
70074;DHT22;57445;51.058;3.698;2023-06-04T10:29:10;23.00;45.30
70074;DHT22;57445;51.058;3.698;2023-06-04T10:31:44;22.40;45.30
70074;DHT22;57445;51.058;3.698;2023-06-04T10:34:12;22.60;45.20
70074;DHT22;57445;51.058;3.698;2023-06-04T10:36:46;22.60;45.40
70074;DHT22;57445;51.058;3.698;2023-06-04T10:39:13;22.90;45.00
70074;DHT22;57445;51.058;3.698;2023-06-04T10:41:45;23.10;45.10
70074;DHT22;57445;51.058;3.698;2023-06-04T10:44:13;23.20;44.70
70074;DHT22;57445;51.058;3.698;2023-06-04T10:46:40;23.10;44.70
70074;DHT22;57445;51.058;3.698;2023-06-04T10:49:09;23.20;44.80
70074;DHT22;57445;51.058;3.698;2023-06-04T10:51:41;24.00;44.10
70074;DHT22;57445;51.058;3.698;2023-06-04T10:54:21;23.70;43.30
70074;DHT22;57445;51.058;3.698;2023-06-04T10:56:53;23.20;43.90
70074;DHT22;57445;51.058;3.698;2023-06-04T10:59:25;23.00;44.70
70074;DHT22;57445;51.058;3.698;2023-06-04T11:02:03;23.00;45.00
70074;DHT22;57445;51.058;3.698;2023-06-04T11:04:35;23.60;43.10
70074;DHT22;57445;51.058;3.698;2023-06-04T11:07:04;23.50;43.40
70074;DHT22;57445;51.058;3.698;2023-06-04T11:09:36;23.20;43.50
70074;DHT22;57445;51.058;3.698;2023-06-04T11:12:04;23.70;43.00
70074;DHT22;57445;51.058;3.698;2023-06-04T11:14:36;23.70;43.10
70074;DHT22;57445;51.058;3.698;2023-06-04T11:17:08;23.70;43.30
70074;DHT22;57445;51.058;3.698;2023-06-04T11:19:36;23.70;42.60
70074;DHT22;57445;51.058;3.698;2023-06-04T11:22:10;23.20;44.50
70074;DHT22;57445;51.058;3.698;2023-06-04T11:24:39;23.50;43.80
70074;DHT22;57445;51.058;3.698;2023-06-04T11:27:11;24.20;42.40
70074;DHT22;57445;51.058;3.698;2023-06-04T11:29:43;24.30;42.10
70074;DHT22;57445;51.058;3.698;2023-06-04T11:32:20;24.40;42.20
70074;DHT22;57445;51.058;3.698;2023-06-04T11:34:47;23.60;42.20
70074;DHT22;57445;51.058;3.698;2023-06-04T11:37:19;23.70;42.80
70074;DHT22;57445;51.058;3.698;2023-06-04T11:39:48;23.80;42.80
70074;DHT22;57445;51.058;3.698;2023-06-04T11:42:16;23.60;43.30
70074;DHT22;57445;51.058;3.698;2023-06-04T11:44:48;23.80;43.00
70074;DHT22;57445;51.058;3.698;2023-06-04T11:47:20;23.80;42.00
70074;DHT22;57445;51.058;3.698;2023-06-04T11:49:48;23.90;41.40
70074;DHT22;57445;51.058;3.698;2023-06-04T11:52:19;24.10;41.90
70074;DHT22;57445;51.058;3.698;2023-06-04T11:54:53;23.70;43.10
70074;DHT22;57445;51.058;3.698;2023-06-04T11:57:26;23.80;42.60
70074;DHT22;57445;51.058;3.698;2023-06-04T11:59:53;23.90;43.00
70074;DHT22;57445;51.058;3.698;2023-06-04T12:02:20;23.90;41.80
70074;DHT22;57445;51.058;3.698;2023-06-04T12:04:53;24.40;41.80
70074;DHT22;57445;51.058;3.698;2023-06-04T12:07:20;24.30;41.50
70074;DHT22;57445;51.058;3.698;2023-06-04T12:10:04;24.50;41.30
70074;DHT22;57445;51.058;3.698;2023-06-04T12:12:36;24.40;41.70
70074;DHT22;57445;51.058;3.698;2023-06-04T12:15:04;23.90;42.70
70074;DHT22;57445;51.058;3.698;2023-06-04T12:17:37;23.60;43.30
70074;DHT22;57445;51.058;3.698;2023-06-04T12:20:30;24.00;43.30
70074;DHT22;57445;51.058;3.698;2023-06-04T12:22:59;23.80;43.50
70074;DHT22;57445;51.058;3.698;2023-06-04T12:25:28;23.60;43.20
70074;DHT22;57445;51.058;3.698;2023-06-04T12:28:00;23.70;43.00
70074;DHT22;57445;51.058;3.698;2023-06-04T12:30:35;23.90;43.60
70074;DHT22;57445;51.058;3.698;2023-06-04T12:33:07;24.50;42.70
70074;DHT22;57445;51.058;3.698;2023-06-04T12:35:39;24.90;42.40
70074;DHT22;57445;51.058;3.698;2023-06-04T12:38:11;24.40;42.60
70074;DHT22;57445;51.058;3.698;2023-06-04T12:40:44;24.30;42.70
70074;DHT22;57445;51.058;3.698;2023-06-04T12:43:11;24.00;43.30
70074;DHT22;57445;51.058;3.698;2023-06-04T12:45:39;23.80;43.80
70074;DHT22;57445;51.058;3.698;2023-06-04T12:48:11;24.10;43.50
70074;DHT22;57445;51.058;3.698;2023-06-04T12:50:43;24.30;43.10
70074;DHT22;57445;51.058;3.698;2023-06-04T12:53:10;24.80;42.50
70074;DHT22;57445;51.058;3.698;2023-06-04T12:55:44;25.00;42.00
70074;DHT22;57445;51.058;3.698;2023-06-04T12:58:15;24.80;42.40
70074;DHT22;57445;51.058;3.698;2023-06-04T13:00:48;25.00;42.10
70074;DHT22;57445;51.058;3.698;2023-06-04T13:03:15;25.10;42.00
70074;DHT22;57445;51.058;3.698;2023-06-04T13:05:47;24.50;42.90
70074;DHT22;57445;51.058;3.698;2023-06-04T13:08:19;24.80;42.50
70074;DHT22;57445;51.058;3.698;2023-06-04T13:10:53;25.30;42.20
70074;DHT22;57445;51.058;3.698;2023-06-04T13:13:26;25.30;42.00
70074;DHT22;57445;51.058;3.698;2023-06-04T13:15:54;24.90;42.30
70074;DHT22;57445;51.058;3.698;2023-06-04T13:18:21;24.90;42.70
70074;DHT22;57445;51.058;3.698;2023-06-04T13:20:53;25.00;43.60
70074;DHT22;57445;51.058;3.698;2023-06-04T13:23:25;24.50;44.70
70074;DHT22;57445;51.058;3.698;2023-06-04T13:25:59;24.20;45.30
70074;DHT22;57445;51.058;3.698;2023-06-04T13:28:31;24.40;45.50
70074;DHT22;57445;51.058;3.698;2023-06-04T13:30:58;24.50;45.40
70074;DHT22;57445;51.058;3.698;2023-06-04T13:33:31;24.90;43.70
70074;DHT22;57445;51.058;3.698;2023-06-04T13:36:00;25.10;43.60
70074;DHT22;57445;51.058;3.698;2023-06-04T13:38:28;24.70;44.00
70074;DHT22;57445;51.058;3.698;2023-06-04T13:40:55;24.40;45.50
70074;DHT22;57445;51.058;3.698;2023-06-04T13:43:29;24.50;44.50
70074;DHT22;57445;51.058;3.698;2023-06-04T13:46:01;24.60;44.20
70074;DHT22;57445;51.058;3.698;2023-06-04T13:48:33;24.50;44.70
70074;DHT22;57445;51.058;3.698;2023-06-04T13:51:05;24.40;45.50
70074;DHT22;57445;51.058;3.698;2023-06-04T13:53:37;24.90;45.10
70074;DHT22;57445;51.058;3.698;2023-06-04T13:56:04;24.40;45.60
70074;DHT22;57445;51.058;3.698;2023-06-04T13:58:37;24.20;45.70
70074;DHT22;57445;51.058;3.698;2023-06-04T14:01:10;24.40;45.10
70074;DHT22;57445;51.058;3.698;2023-06-04T14:03:37;24.30;45.10
70074;DHT22;57445;51.058;3.698;2023-06-04T14:06:09;24.50;45.40
70074;DHT22;57445;51.058;3.698;2023-06-04T14:08:36;24.60;45.60
70074;DHT22;57445;51.058;3.698;2023-06-04T14:11:08;24.30;46.20
70074;DHT22;57445;51.058;3.698;2023-06-04T14:13:43;24.40;46.70
70074;DHT22;57445;51.058;3.698;2023-06-04T14:16:11;24.50;45.60
70074;DHT22;57445;51.058;3.698;2023-06-04T14:18:38;24.90;45.70
70074;DHT22;57445;51.058;3.698;2023-06-04T14:21:06;25.00;45.70
70074;DHT22;57445;51.058;3.698;2023-06-04T14:23:33;25.10;45.70
70074;DHT22;57445;51.058;3.698;2023-06-04T14:26:01;24.70;46.30
70074;DHT22;57445;51.058;3.698;2023-06-04T14:28:28;24.60;46.60
70074;DHT22;57445;51.058;3.698;2023-06-04T14:31:01;24.50;46.90
70074;DHT22;57445;51.058;3.698;2023-06-04T14:33:29;24.40;46.90
70074;DHT22;57445;51.058;3.698;2023-06-04T14:35:56;24.20;46.80
70074;DHT22;57445;51.058;3.698;2023-06-04T14:38:28;24.10;47.20
70074;DHT22;57445;51.058;3.698;2023-06-04T14:41:00;24.20;47.40
70074;DHT22;57445;51.058;3.698;2023-06-04T14:43:32;24.10;47.40
70074;DHT22;57445;51.058;3.698;2023-06-04T14:46:06;24.10;47.10
70074;DHT22;57445;51.058;3.698;2023-06-04T14:48:33;24.30;46.80
70074;DHT22;57445;51.058;3.698;2023-06-04T14:51:05;24.30;47.00
70074;DHT22;57445;51.058;3.698;2023-06-04T14:53:33;24.30;47.00
70074;DHT22;57445;51.058;3.698;2023-06-04T14:56:00;24.30;46.50
70074;DHT22;57445;51.058;3.698;2023-06-04T14:58:29;24.20;46.80
70074;DHT22;57445;51.058;3.698;2023-06-04T15:01:01;24.20;46.70
70074;DHT22;57445;51.058;3.698;2023-06-04T15:03:35;24.20;47.40
70074;DHT22;57445;51.058;3.698;2023-06-04T15:06:07;24.20;46.90
70074;DHT22;57445;51.058;3.698;2023-06-04T15:08:35;24.00;47.60
70074;DHT22;57445;51.058;3.698;2023-06-04T15:11:07;23.80;49.70
70074;DHT22;57445;51.058;3.698;2023-06-04T15:13:38;23.70;57.50
70074;DHT22;57445;51.058;3.698;2023-06-04T15:16:06;23.60;57.90
70074;DHT22;57445;51.058;3.698;2023-06-04T15:18:35;23.60;58.20
70074;DHT22;57445;51.058;3.698;2023-06-04T15:21:07;23.60;59.70
70074;DHT22;57445;51.058;3.698;2023-06-04T15:23:39;23.70;58.60
70074;DHT22;57445;51.058;3.698;2023-06-04T15:26:14;23.30;59.30
70074;DHT22;57445;51.058;3.698;2023-06-04T15:28:46;23.40;59.90
70074;DHT22;57445;51.058;3.698;2023-06-04T15:31:13;23.70;59.40
70074;DHT22;57445;51.058;3.698;2023-06-04T15:33:42;23.70;59.60
70074;DHT22;57445;51.058;3.698;2023-06-04T15:36:09;23.50;59.70
70074;DHT22;57445;51.058;3.698;2023-06-04T15:38:37;23.40;60.10
70074;DHT22;57445;51.058;3.698;2023-06-04T15:41:09;23.30;60.80
70074;DHT22;57445;51.058;3.698;2023-06-04T15:43:36;23.20;61.60
70074;DHT22;57445;51.058;3.698;2023-06-04T15:46:04;23.10;62.00
70074;DHT22;57445;51.058;3.698;2023-06-04T15:48:31;23.10;62.10